createdAt,value
2023-03-04T00:01:28.926Z,3.78
2023-03-04T00:04:00.284Z,3.53
2023-03-04T00:06:28.326Z,3.83
2023-03-04T00:08:56.340Z,3.52
2023-03-04T00:11:24.382Z,3.37
2023-03-04T00:13:52.581Z,3.15
2023-03-04T00:16:20.690Z,2.72
2023-03-04T00:18:48.693Z,2.83
2023-03-04T00:21:23.054Z,2.70
2023-03-04T00:23:51.591Z,3.47
2023-03-04T00:26:19.850Z,3.64
2023-03-04T00:28:48.769Z,3.69
2023-03-04T00:31:16.904Z,3.83
2023-03-04T00:33:45.033Z,2.89
2023-03-04T00:36:13.042Z,3.56
2023-03-04T00:38:42.393Z,2.46
2023-03-04T00:41:13.534Z,2.36
2023-03-04T00:43:42.906Z,2.09
2023-03-04T00:46:10.922Z,2.34
2023-03-04T00:48:39.618Z,1.92
2023-03-04T00:51:07.689Z,1.60
2023-03-04T00:53:35.840Z,2.11
2023-03-04T00:56:05.412Z,2.12
2023-03-04T00:58:33.434Z,2.38
2023-03-04T01:01:01.417Z,2.57
2023-03-04T01:03:31.429Z,2.78
2023-03-04T01:05:59.885Z,2.74
2023-03-04T01:08:27.868Z,2.39
2023-03-04T01:10:55.905Z,2.82
2023-03-04T01:13:25.244Z,2.90
2023-03-04T01:15:53.320Z,2.88
2023-03-04T01:18:21.366Z,2.79
2023-03-04T01:20:49.397Z,2.89
2023-03-04T01:23:17.570Z,2.22
2023-03-04T01:25:45.614Z,2.39
2023-03-04T01:28:13.644Z,2.03
2023-03-04T01:30:43.940Z,2.10
2023-03-04T01:33:12.039Z,2.40
2023-03-04T01:35:40.212Z,2.45
2023-03-04T01:38:08.270Z,2.54
2023-03-04T01:40:38.980Z,1.93
2023-03-04T01:43:12.549Z,1.91
2023-03-04T01:45:40.643Z,1.97
2023-03-04T01:48:13.833Z,1.66
2023-03-04T01:50:41.925Z,2.06
2023-03-04T01:53:16.287Z,2.13
2023-03-04T01:55:44.277Z,2.25
2023-03-04T01:58:13.078Z,2.05
2023-03-04T02:00:41.678Z,1.71
2023-03-04T02:03:12.561Z,1.49
2023-03-04T02:05:42.456Z,1.29
2023-03-04T02:08:11.743Z,2.11
2023-03-04T02:10:39.972Z,1.51
2023-03-04T02:13:08.093Z,1.73
2023-03-04T02:15:36.123Z,1.84
2023-03-04T02:18:08.389Z,2.26
2023-03-04T02:20:44.916Z,1.94
2023-03-04T02:23:17.928Z,1.74
2023-03-04T02:25:50.459Z,2.19
2023-03-04T02:28:20.500Z,2.27
2023-03-04T02:30:49.116Z,2.36
2023-03-04T02:33:19.008Z,2.59
2023-03-04T02:35:47.580Z,2.26
2023-03-04T02:38:15.873Z,2.60
2023-03-04T02:40:47.656Z,1.96
2023-03-04T02:43:18.010Z,2.42
2023-03-04T02:45:50.936Z,1.99
2023-03-04T02:48:23.925Z,2.05
2023-03-04T02:50:52.671Z,2.19
2023-03-04T02:53:21.677Z,2.18
2023-03-04T02:55:50.620Z,2.19
2023-03-04T02:58:21.181Z,1.65
2023-03-04T03:00:50.762Z,1.69
2023-03-04T03:03:18.914Z,1.45
2023-03-04T03:05:47.110Z,1.86
2023-03-04T03:08:15.450Z,1.84
2023-03-04T03:10:43.492Z,1.50
2023-03-04T03:13:11.546Z,1.76
2023-03-04T03:15:42.298Z,1.16
2023-03-04T03:18:12.509Z,1.75
2023-03-04T03:20:40.523Z,1.00
2023-03-04T03:23:09.507Z,1.32
2023-03-04T03:25:37.539Z,1.80
2023-03-04T03:28:07.137Z,1.34
2023-03-04T03:30:35.172Z,1.50
2023-03-04T03:33:05.831Z,1.62
2023-03-04T03:35:35.688Z,1.88
2023-03-04T03:38:03.721Z,1.56
2023-03-04T03:40:31.776Z,0.98
2023-03-04T03:42:59.829Z,1.13
2023-03-04T03:45:27.840Z,0.83
2023-03-04T03:47:55.860Z,0.79
2023-03-04T03:50:23.854Z,1.11
2023-03-04T03:52:53.166Z,1.11
2023-03-04T03:55:21.108Z,1.10
2023-03-04T03:57:49.072Z,0.81
2023-03-04T04:00:17.677Z,0.99
2023-03-04T04:02:45.904Z,1.00
2023-03-04T04:05:14.263Z,0.79
2023-03-04T04:07:45.232Z,0.75
2023-03-04T04:10:14.550Z,0.49
2023-03-04T04:12:42.605Z,0.73
2023-03-04T04:15:11.832Z,1.34
2023-03-04T04:17:39.904Z,0.37
2023-03-04T04:20:08.905Z,0.40
2023-03-04T04:22:36.958Z,0.48
2023-03-04T04:25:05.354Z,0.61
2023-03-04T04:27:34.876Z,0.64
2023-03-04T04:30:02.919Z,0.83
2023-03-04T04:32:31.021Z,1.19
2023-03-04T04:34:59.093Z,0.91
2023-03-04T04:37:27.041Z,0.59
2023-03-04T04:39:55.383Z,0.98
2023-03-04T04:42:23.844Z,0.86
2023-03-04T04:44:53.166Z,1.46
2023-03-04T04:47:21.345Z,1.23
2023-03-04T04:49:49.277Z,0.31
2023-03-04T04:52:17.293Z,1.00
2023-03-04T04:54:45.408Z,0.61
2023-03-04T04:57:13.464Z,0.30
2023-03-04T04:59:41.563Z,-0.02
2023-03-04T05:02:10.911Z,0.23
2023-03-04T05:04:38.913Z,0.39
2023-03-04T05:07:06.960Z,0.30
2023-03-04T05:09:35.123Z,0.43
2023-03-04T05:12:03.095Z,0.54
2023-03-04T05:14:31.161Z,0.27
2023-03-04T05:16:59.192Z,0.40
2023-03-04T05:19:28.950Z,0.64
2023-03-04T05:21:56.928Z,0.49
2023-03-04T05:24:25.028Z,0.40
2023-03-04T05:26:53.036Z,0.21
2023-03-04T05:29:23.172Z,-0.07
2023-03-04T05:31:51.179Z,0.45
2023-03-04T05:34:19.643Z,0.49
2023-03-04T05:36:49.251Z,0.52
2023-03-04T05:39:17.346Z,1.13
2023-03-04T05:41:47.518Z,0.51
2023-03-04T05:44:15.511Z,0.40
2023-03-04T05:46:43.566Z,0.76
2023-03-04T05:49:11.654Z,0.68
2023-03-04T05:51:39.704Z,0.20
2023-03-04T05:54:09.084Z,0.64
2023-03-04T05:56:39.509Z,0.40
2023-03-04T05:59:07.468Z,0.07
2023-03-04T06:01:35.385Z,0.45
2023-03-04T06:04:03.402Z,0.68
2023-03-04T06:06:31.365Z,0.90
2023-03-04T06:09:00.329Z,1.03
2023-03-04T06:11:29.691Z,0.97
2023-03-04T06:13:57.730Z,0.79
2023-03-04T06:16:25.807Z,0.14
2023-03-04T06:18:53.923Z,0.22
2023-03-04T06:21:21.984Z,0.49
2023-03-04T06:23:49.969Z,1.14
2023-03-04T06:26:18.179Z,0.95
2023-03-04T06:28:47.564Z,0.90
2023-03-04T06:31:15.619Z,1.29
2023-03-04T06:33:43.658Z,0.67
2023-03-04T06:36:11.785Z,1.11
2023-03-04T06:38:39.772Z,0.56
2023-03-04T06:41:08.454Z,1.42
2023-03-04T06:43:36.772Z,1.62
2023-03-04T06:46:06.418Z,0.95
2023-03-04T06:48:34.486Z,1.32
2023-03-04T06:51:08.234Z,0.52
2023-03-04T06:53:36.527Z,0.46
2023-03-04T06:56:05.051Z,1.07
2023-03-04T06:58:33.118Z,1.08
2023-03-04T07:01:11.627Z,0.82
2023-03-04T07:03:39.755Z,1.13
2023-03-04T07:06:07.748Z,1.42
2023-03-04T07:08:35.819Z,1.38
2023-03-04T07:11:03.893Z,1.20
2023-03-04T07:13:32.589Z,0.49
2023-03-04T07:16:00.831Z,1.02
2023-03-04T07:18:30.230Z,1.58
2023-03-04T07:20:58.282Z,1.32
2023-03-04T07:23:26.247Z,1.39
2023-03-04T07:25:54.546Z,1.43
2023-03-04T07:28:22.702Z,1.49
2023-03-04T07:30:50.697Z,1.73
2023-03-04T07:33:18.782Z,1.93
2023-03-04T07:35:48.147Z,1.71
2023-03-04T07:38:18.462Z,2.13
2023-03-04T07:40:46.420Z,2.47
2023-03-04T07:43:14.629Z,2.32
2023-03-04T07:45:42.656Z,1.47
2023-03-04T07:48:10.721Z,1.71
2023-03-04T07:50:38.699Z,2.32
2023-03-04T07:53:08.078Z,2.04
2023-03-04T07:55:36.169Z,2.28
2023-03-04T07:58:04.154Z,2.16
2023-03-04T08:00:32.540Z,1.75
2023-03-04T08:03:00.597Z,2.26
2023-03-04T08:05:28.567Z,2.19
2023-03-04T08:07:58.909Z,2.41
2023-03-04T08:10:28.458Z,3.06
2023-03-04T08:12:56.488Z,2.62
2023-03-04T08:15:24.940Z,2.72
2023-03-04T08:17:53.060Z,2.56
2023-03-04T08:20:21.202Z,2.89
2023-03-04T08:22:49.242Z,2.36
2023-03-04T08:25:17.393Z,2.96
2023-03-04T08:27:46.772Z,3.09
2023-03-04T08:30:14.863Z,3.49
2023-03-04T08:32:42.965Z,3.17
2023-03-04T08:35:11.057Z,2.85
2023-03-04T08:37:39.202Z,3.14
2023-03-04T08:40:07.870Z,3.57
2023-03-04T08:42:35.905Z,3.75
2023-03-04T08:45:05.739Z,3.70
2023-03-04T08:47:33.789Z,3.91
2023-03-04T08:50:01.837Z,3.41
2023-03-04T08:52:30.056Z,3.43
2023-03-04T08:54:58.564Z,3.69
2023-03-04T08:57:28.927Z,3.30
2023-03-04T08:59:56.960Z,3.66
2023-03-04T09:02:26.373Z,3.90
2023-03-04T09:04:54.495Z,3.67
2023-03-04T09:07:25.030Z,4.43
2023-03-04T09:09:53.117Z,4.27
2023-03-04T09:12:21.121Z,4.05
2023-03-04T09:15:01.071Z,4.38
2023-03-04T09:17:37.965Z,4.32
2023-03-04T09:20:08.219Z,4.35
2023-03-04T09:22:36.362Z,3.89
2023-03-04T09:25:04.832Z,4.82
2023-03-04T09:27:32.901Z,4.53
2023-03-04T09:30:00.900Z,4.20
2023-03-04T09:32:28.926Z,4.51
2023-03-04T09:35:02.108Z,5.09
2023-03-04T09:37:30.237Z,4.55
2023-03-04T09:39:58.812Z,4.55
2023-03-04T09:42:29.404Z,4.80
2023-03-04T09:44:58.118Z,5.03
2023-03-04T09:47:27.075Z,4.82
2023-03-04T09:49:57.360Z,4.66
2023-03-04T09:52:33.644Z,5.23
2023-03-04T09:55:07.125Z,5.65
2023-03-04T09:57:44.604Z,5.39
2023-03-04T10:00:19.903Z,4.83
2023-03-04T10:02:54.358Z,5.21
2023-03-04T10:05:23.100Z,5.79
2023-03-04T10:07:58.146Z,5.01
2023-03-04T10:10:28.213Z,5.68
2023-03-04T10:12:59.099Z,5.01
2023-03-04T10:15:31.273Z,5.44
2023-03-04T10:18:04.708Z,5.40
2023-03-04T10:20:40.102Z,5.44
2023-03-04T10:23:12.643Z,5.44
2023-03-04T10:25:43.177Z,5.25
2023-03-04T10:28:17.152Z,5.31
2023-03-04T10:30:49.185Z,5.65
2023-03-04T10:33:18.462Z,5.81
2023-03-04T10:35:49.313Z,5.61
2023-03-04T10:38:21.014Z,5.98
2023-03-04T10:40:49.104Z,5.65
2023-03-04T10:43:18.031Z,5.18
2023-03-04T10:45:46.542Z,5.30
2023-03-04T10:48:20.009Z,5.66
2023-03-04T10:50:48.068Z,5.37
2023-03-04T10:53:30.087Z,5.13
2023-03-04T10:55:58.232Z,5.03
2023-03-04T10:58:26.359Z,5.15
2023-03-04T11:01:02.412Z,4.99
2023-03-04T11:03:32.211Z,5.09
2023-03-04T11:06:08.244Z,4.70
2023-03-04T11:08:37.645Z,5.39
2023-03-04T11:11:22.160Z,5.09
2023-03-04T11:13:54.390Z,4.70
2023-03-04T11:16:27.171Z,4.83
2023-03-04T11:18:56.648Z,4.76
2023-03-04T11:21:25.521Z,4.49
2023-03-04T11:23:57.569Z,4.56
2023-03-04T11:26:29.651Z,4.18
2023-03-04T11:28:59.181Z,4.55
2023-03-04T11:31:29.203Z,4.56
2023-03-04T11:33:59.492Z,4.91
2023-03-04T11:36:33.746Z,4.17
2023-03-04T11:39:04.368Z,4.29
2023-03-04T11:41:35.617Z,4.73
2023-03-04T11:44:06.577Z,4.27
2023-03-04T11:46:45.986Z,4.80
2023-03-04T11:49:32.143Z,4.81
2023-03-04T11:52:04.630Z,4.97
2023-03-04T11:54:42.103Z,4.54
2023-03-04T11:57:13.784Z,4.56
2023-03-04T11:59:54.760Z,4.22
2023-03-04T12:02:24.277Z,4.13
2023-03-04T12:05:07.189Z,5.04
2023-03-04T12:07:47.866Z,4.23
2023-03-04T12:10:21.878Z,4.86
2023-03-04T12:12:59.307Z,5.03
2023-03-04T12:15:29.920Z,4.68
2023-03-04T12:18:17.161Z,4.73
2023-03-04T12:20:54.140Z,4.48
2023-03-04T12:23:27.180Z,4.44
2023-03-04T12:25:59.253Z,4.92
2023-03-04T12:28:47.738Z,5.18
2023-03-04T12:31:21.505Z,5.53
2023-03-04T12:33:56.556Z,4.68
2023-03-04T12:36:30.731Z,4.80
2023-03-04T12:39:08.003Z,4.63
2023-03-04T12:41:43.154Z,5.65
2023-03-04T12:44:17.007Z,5.24
2023-03-04T12:46:49.673Z,5.29
2023-03-04T12:49:41.867Z,5.14
2023-03-04T12:52:15.219Z,4.84
2023-03-04T12:54:46.267Z,5.02
2023-03-04T12:57:17.476Z,5.38
2023-03-04T12:59:48.912Z,5.22
2023-03-04T13:02:40.841Z,4.84
2023-03-04T13:05:19.390Z,5.13
2023-03-04T13:07:54.198Z,5.35
2023-03-04T13:10:23.572Z,5.31
2023-03-04T13:12:53.539Z,5.54
2023-03-04T13:15:30.391Z,5.43
2023-03-04T13:17:59.419Z,4.74
2023-03-04T13:20:42.333Z,5.10
2023-03-04T13:23:27.694Z,4.61
2023-03-04T13:26:25.901Z,4.89
2023-03-04T13:29:12.215Z,5.41
2023-03-04T13:31:59.799Z,5.32
2023-03-04T13:34:44.823Z,4.82
2023-03-04T13:37:33.881Z,4.79
2023-03-04T13:40:32.062Z,4.76
2023-03-04T13:43:14.986Z,4.58
2023-03-04T13:45:44.433Z,4.56
2023-03-04T13:48:24.850Z,4.80
2023-03-04T13:50:53.120Z,4.74
2023-03-04T13:53:42.014Z,3.92
2023-03-04T13:56:24.906Z,5.10
2023-03-04T13:59:01.595Z,4.63
2023-03-04T14:01:32.277Z,4.64
2023-03-04T14:04:00.823Z,5.06
2023-03-04T14:06:29.980Z,5.10
2023-03-04T14:09:00.683Z,4.97
2023-03-04T14:11:32.026Z,4.89
2023-03-04T14:14:06.778Z,4.54
2023-03-04T14:16:39.404Z,4.74
2023-03-04T14:19:08.829Z,4.53
2023-03-04T14:21:39.061Z,4.75
2023-03-04T14:24:08.902Z,4.95
2023-03-04T14:26:37.185Z,5.20
2023-03-04T14:29:20.973Z,5.24
2023-03-04T14:31:52.182Z,5.28
2023-03-04T14:34:24.839Z,4.78
2023-03-04T14:36:53.000Z,5.62
2023-03-04T14:39:22.271Z,5.68
2023-03-04T14:41:51.460Z,5.35
2023-03-04T14:44:27.338Z,5.91
2023-03-04T14:47:08.041Z,4.98
2023-03-04T14:49:37.479Z,5.09
2023-03-04T14:52:08.667Z,5.12
2023-03-04T14:54:38.912Z,4.78
2023-03-04T14:57:26.032Z,4.77
2023-03-04T14:59:54.404Z,4.88
2023-03-04T15:02:31.172Z,5.42
2023-03-04T15:05:01.246Z,5.32
2023-03-04T15:07:34.458Z,5.40
2023-03-04T15:10:12.441Z,5.36
2023-03-04T15:12:40.518Z,5.21
2023-03-04T15:15:23.694Z,5.52
2023-03-04T15:18:04.464Z,5.39
2023-03-04T15:20:33.375Z,5.58
2023-03-04T15:23:03.406Z,5.29
2023-03-04T15:25:31.758Z,5.29
2023-03-04T15:28:02.725Z,5.11
2023-03-04T15:30:32.962Z,5.36
2023-03-04T15:33:02.552Z,5.53
2023-03-04T15:35:33.024Z,5.50
2023-03-04T15:38:01.440Z,5.45
2023-03-04T15:40:31.695Z,5.35
2023-03-04T15:43:01.744Z,5.55
2023-03-04T15:45:31.134Z,5.32
2023-03-04T15:47:59.383Z,5.29
2023-03-04T15:50:30.038Z,5.61
2023-03-04T15:53:02.037Z,5.35
2023-03-04T15:55:31.369Z,5.47
2023-03-04T15:58:01.211Z,4.94
2023-03-04T16:00:30.964Z,4.96
2023-03-04T16:02:59.082Z,4.99
2023-03-04T16:05:32.712Z,5.43
2023-03-04T16:08:00.891Z,5.66
2023-03-04T16:10:30.659Z,5.54
2023-03-04T16:12:58.993Z,5.12
2023-03-04T16:15:28.584Z,5.41
2023-03-04T16:17:59.737Z,4.95
2023-03-04T16:20:38.533Z,5.06
2023-03-04T16:23:11.508Z,5.69
2023-03-04T16:25:39.675Z,5.52
2023-03-04T16:28:07.902Z,5.76
2023-03-04T16:30:35.935Z,5.33
2023-03-04T16:33:04.205Z,5.62
2023-03-04T16:35:34.398Z,6.07
2023-03-04T16:38:04.291Z,5.56
2023-03-04T16:40:32.402Z,5.71
2023-03-04T16:43:00.453Z,5.67
2023-03-04T16:45:30.259Z,5.96
2023-03-04T16:47:58.527Z,5.35
2023-03-04T16:50:28.278Z,5.51
2023-03-04T16:52:56.639Z,5.48
2023-03-04T16:55:27.451Z,5.91
2023-03-04T16:57:57.740Z,5.54
2023-03-04T17:00:27.582Z,5.34
2023-03-04T17:02:56.955Z,5.40
2023-03-04T17:05:25.780Z,5.65
2023-03-04T17:07:53.844Z,5.66
2023-03-04T17:10:23.051Z,5.64
2023-03-04T17:12:52.966Z,5.84
2023-03-04T17:15:21.139Z,5.23
2023-03-04T17:17:49.301Z,4.89
2023-03-04T17:20:19.922Z,5.28
2023-03-04T17:22:48.120Z,5.15
2023-03-04T17:25:16.518Z,5.23
2023-03-04T17:27:44.659Z,4.97
2023-03-04T17:30:14.828Z,5.36
2023-03-04T17:32:45.105Z,5.43
2023-03-04T17:35:13.128Z,4.94
2023-03-04T17:37:41.660Z,4.91
2023-03-04T17:40:14.395Z,5.74
2023-03-04T17:42:45.130Z,5.01
2023-03-04T17:45:16.587Z,5.62
2023-03-04T17:47:44.675Z,5.14
2023-03-04T17:50:15.042Z,4.98
2023-03-04T17:52:43.144Z,5.30
2023-03-04T17:55:11.504Z,4.85
2023-03-04T17:57:39.691Z,5.47
2023-03-04T18:00:08.634Z,5.36
2023-03-04T18:02:38.046Z,5.36
2023-03-04T18:05:07.502Z,5.27
2023-03-04T18:07:35.555Z,5.15
2023-03-04T18:10:03.802Z,5.46
2023-03-04T18:12:32.001Z,5.48
2023-03-04T18:15:00.080Z,5.46
2023-03-04T18:17:28.182Z,5.72
2023-03-04T18:19:57.632Z,5.41
2023-03-04T18:22:25.663Z,5.22
2023-03-04T18:24:53.816Z,5.42
2023-03-04T18:27:21.860Z,5.30
2023-03-04T18:29:50.310Z,5.37
2023-03-04T18:32:18.472Z,5.69
2023-03-04T18:34:49.611Z,5.77
2023-03-04T18:37:19.157Z,5.50
2023-03-04T18:39:47.242Z,5.64
2023-03-04T18:42:15.256Z,5.60
2023-03-04T18:44:43.389Z,5.22
2023-03-04T18:47:11.706Z,5.40
2023-03-04T18:49:40.859Z,5.09
2023-03-04T18:52:08.949Z,5.53
2023-03-04T18:54:38.305Z,5.04
2023-03-04T18:57:09.418Z,5.15
2023-03-04T18:59:39.812Z,5.29
2023-03-04T19:02:15.117Z,5.16
2023-03-04T19:04:43.472Z,5.21
2023-03-04T19:07:11.571Z,5.13
2023-03-04T19:09:41.287Z,5.27
2023-03-04T19:12:09.323Z,5.35
2023-03-04T19:14:37.345Z,5.59
2023-03-04T19:17:05.699Z,5.49
2023-03-04T19:19:36.656Z,5.20
2023-03-04T19:22:04.693Z,5.37
2023-03-04T19:24:32.787Z,5.28
2023-03-04T19:27:02.728Z,5.50
2023-03-04T19:29:30.783Z,5.80
2023-03-04T19:31:58.938Z,5.39
2023-03-04T19:34:27.006Z,5.36
2023-03-04T19:36:55.137Z,5.10
2023-03-04T19:39:23.278Z,5.00
2023-03-04T19:41:51.283Z,5.54
2023-03-04T19:44:20.755Z,5.53
2023-03-04T19:46:48.818Z,5.15
2023-03-04T19:49:16.955Z,5.25
2023-03-04T19:51:44.992Z,5.24
2023-03-04T19:54:13.006Z,5.93
2023-03-04T19:56:41.041Z,6.22
2023-03-04T19:59:09.156Z,5.92
2023-03-04T20:01:38.672Z,5.69
2023-03-04T20:04:08.508Z,6.02
2023-03-04T20:06:37.064Z,5.90
2023-03-04T20:09:05.986Z,5.64
2023-03-04T20:11:39.223Z,5.77
2023-03-04T20:14:12.219Z,5.96
2023-03-04T20:16:41.641Z,5.89
2023-03-04T20:19:09.677Z,5.96
2023-03-04T20:21:37.739Z,5.94
2023-03-04T20:24:06.281Z,6.06
2023-03-04T20:26:34.397Z,5.97
2023-03-04T20:29:02.530Z,5.83
2023-03-04T20:31:31.719Z,6.05
2023-03-04T20:34:01.159Z,5.62
2023-03-04T20:36:29.937Z,6.22
2023-03-04T20:39:04.365Z,5.44
2023-03-04T20:41:36.281Z,4.98
2023-03-04T20:44:06.218Z,5.44
2023-03-04T20:46:39.639Z,5.31
2023-03-04T20:49:11.065Z,5.64
2023-03-04T20:51:39.502Z,5.55
2023-03-04T20:54:07.980Z,5.66
2023-03-04T20:56:36.417Z,5.44
2023-03-04T20:59:06.773Z,5.33
2023-03-04T21:01:35.197Z,4.84
2023-03-04T21:04:03.525Z,5.34
2023-03-04T21:06:33.303Z,5.80
2023-03-04T21:09:02.227Z,6.01
2023-03-04T21:11:30.403Z,5.21
2023-03-04T21:13:58.568Z,5.05
2023-03-04T21:16:29.640Z,5.97
2023-03-04T21:18:57.633Z,6.07
2023-03-04T21:21:27.288Z,6.23
2023-03-04T21:24:00.309Z,6.13
2023-03-04T21:26:28.739Z,6.18
2023-03-04T21:28:56.780Z,5.46
2023-03-04T21:31:26.580Z,5.43
2023-03-04T21:33:55.433Z,5.60
2023-03-04T21:36:23.913Z,5.53
2023-03-04T21:38:51.911Z,5.48
2023-03-04T21:41:22.190Z,5.58
2023-03-04T21:43:50.416Z,5.26
2023-03-04T21:46:19.035Z,5.57
2023-03-04T21:48:48.436Z,5.87
2023-03-04T21:51:17.384Z,5.80
2023-03-04T21:53:45.479Z,6.01
2023-03-04T21:56:13.541Z,5.56
2023-03-04T21:58:43.135Z,5.27
2023-03-04T22:02:36.021Z,4.92
2023-03-04T22:05:08.665Z,5.12
2023-03-04T22:07:37.100Z,4.95
2023-03-04T22:10:06.646Z,5.09
2023-03-04T22:12:34.950Z,5.96
2023-03-04T22:15:03.260Z,5.57
2023-03-04T22:17:31.638Z,5.63
2023-03-04T22:20:02.507Z,5.21
2023-03-04T22:22:31.188Z,5.55
2023-03-04T22:25:00.400Z,5.12
2023-03-04T22:27:28.846Z,5.50
2023-03-04T22:29:57.444Z,5.22
2023-03-04T22:32:25.827Z,5.36
2023-03-04T22:34:54.187Z,5.22
2023-03-04T22:37:23.865Z,5.62
2023-03-04T22:39:52.207Z,5.16
2023-03-04T22:42:20.573Z,5.23
2023-03-04T22:44:48.960Z,5.99
2023-03-04T22:47:17.288Z,5.71
2023-03-04T22:49:47.458Z,6.17
2023-03-04T22:52:15.947Z,5.35
2023-03-04T22:54:45.568Z,5.50
2023-03-04T22:57:13.917Z,5.04
2023-03-04T22:59:42.454Z,4.94
2023-03-04T23:02:10.829Z,4.55
2023-03-04T23:04:39.316Z,4.83
2023-03-04T23:07:07.786Z,5.68
2023-03-04T23:09:36.044Z,6.24
2023-03-04T23:12:06.548Z,5.73
2023-03-04T23:14:34.833Z,6.05
2023-03-04T23:17:03.236Z,6.27
2023-03-04T23:19:31.750Z,6.17
2023-03-04T23:22:02.345Z,6.19
2023-03-04T23:24:30.772Z,6.04
2023-03-04T23:26:59.073Z,6.02
2023-03-04T23:29:28.764Z,6.16
2023-03-04T23:31:57.101Z,6.16
2023-03-04T23:34:25.439Z,6.16
2023-03-04T23:36:53.847Z,5.86
2023-03-04T23:39:22.164Z,6.10
2023-03-04T23:41:50.524Z,6.21
2023-03-04T23:44:21.100Z,5.57
2023-03-04T23:46:50.934Z,5.85
2023-03-04T23:49:19.646Z,5.62
2023-03-04T23:51:48.086Z,5.51
2023-03-04T23:54:16.630Z,5.79
2023-03-04T23:56:45.059Z,5.80
2023-03-04T23:59:13.428Z,5.17
